sensor_id;sensor_type;location;lat;lon;timestamp;P1;durP1;ratioP1;P2;durP2;ratioP2
77938;SDS011;67136;47.546;21.630;2023-08-24T00:02:01;9.35;;;5.93;;
77938;SDS011;67136;47.546;21.630;2023-08-24T00:05:05;11.47;;;6.13;;
77938;SDS011;67136;47.546;21.630;2023-08-24T00:08:08;9.93;;;5.95;;
77938;SDS011;67136;47.546;21.630;2023-08-24T00:11:11;10.82;;;5.78;;
77938;SDS011;67136;47.546;21.630;2023-08-24T00:14:17;10.48;;;5.53;;
77938;SDS011;67136;47.546;21.630;2023-08-24T00:17:20;8.98;;;6.07;;
77938;SDS011;67136;47.546;21.630;2023-08-24T00:20:22;9.20;;;5.90;;
77938;SDS011;67136;47.546;21.630;2023-08-24T00:23:25;7.97;;;5.68;;
77938;SDS011;67136;47.546;21.630;2023-08-24T00:26:28;8.18;;;5.57;;
77938;SDS011;67136;47.546;21.630;2023-08-24T00:29:31;10.38;;;5.53;;
77938;SDS011;67136;47.546;21.630;2023-08-24T00:32:34;10.15;;;5.75;;
77938;SDS011;67136;47.546;21.630;2023-08-24T00:35:38;7.63;;;5.07;;
77938;SDS011;67136;47.546;21.630;2023-08-24T00:38:41;8.95;;;5.68;;
77938;SDS011;67136;47.546;21.630;2023-08-24T00:41:47;10.32;;;5.40;;
77938;SDS011;67136;47.546;21.630;2023-08-24T00:44:50;8.68;;;5.50;;
77938;SDS011;67136;47.546;21.630;2023-08-24T00:47:53;10.25;;;5.90;;
77938;SDS011;67136;47.546;21.630;2023-08-24T00:50:57;9.57;;;5.50;;
77938;SDS011;67136;47.546;21.630;2023-08-24T00:54:02;8.90;;;5.37;;
77938;SDS011;67136;47.546;21.630;2023-08-24T00:57:05;7.18;;;5.53;;
77938;SDS011;67136;47.546;21.630;2023-08-24T01:00:09;10.55;;;5.68;;
77938;SDS011;67136;47.546;21.630;2023-08-24T01:03:12;9.30;;;6.10;;
77938;SDS011;67136;47.546;21.630;2023-08-24T01:06:17;9.13;;;6.03;;
77938;SDS011;67136;47.546;21.630;2023-08-24T01:09:20;8.93;;;6.12;;
77938;SDS011;67136;47.546;21.630;2023-08-24T01:18:58;9.73;;;6.20;;
77938;SDS011;67136;47.546;21.630;2023-08-24T01:22:02;8.97;;;6.07;;
77938;SDS011;67136;47.546;21.630;2023-08-24T01:28:29;8.75;;;6.43;;
77938;SDS011;67136;47.546;21.630;2023-08-24T01:31:34;9.93;;;6.45;;
77938;SDS011;67136;47.546;21.630;2023-08-24T01:34:37;10.07;;;5.78;;
77938;SDS011;67136;47.546;21.630;2023-08-24T01:37:41;7.80;;;5.90;;
77938;SDS011;67136;47.546;21.630;2023-08-24T01:44:27;8.38;;;5.85;;
77938;SDS011;67136;47.546;21.630;2023-08-24T01:47:31;8.05;;;6.03;;
77938;SDS011;67136;47.546;21.630;2023-08-24T01:50:35;9.52;;;6.68;;
77938;SDS011;67136;47.546;21.630;2023-08-24T01:53:39;8.50;;;6.67;;
77938;SDS011;67136;47.546;21.630;2023-08-24T01:56:46;9.60;;;6.53;;
77938;SDS011;67136;47.546;21.630;2023-08-24T01:59:49;10.32;;;6.60;;
77938;SDS011;67136;47.546;21.630;2023-08-24T02:02:52;9.43;;;6.62;;
77938;SDS011;67136;47.546;21.630;2023-08-24T02:05:55;9.88;;;6.37;;
77938;SDS011;67136;47.546;21.630;2023-08-24T02:08:58;8.53;;;6.50;;
77938;SDS011;67136;47.546;21.630;2023-08-24T02:12:01;12.00;;;6.57;;
77938;SDS011;67136;47.546;21.630;2023-08-24T02:15:04;10.30;;;6.78;;
77938;SDS011;67136;47.546;21.630;2023-08-24T02:18:07;8.85;;;6.25;;
77938;SDS011;67136;47.546;21.630;2023-08-24T02:21:10;9.60;;;6.32;;
77938;SDS011;67136;47.546;21.630;2023-08-24T02:24:15;8.90;;;6.73;;
77938;SDS011;67136;47.546;21.630;2023-08-24T02:27:17;9.80;;;6.35;;
77938;SDS011;67136;47.546;21.630;2023-08-24T02:30:20;9.65;;;6.37;;
77938;SDS011;67136;47.546;21.630;2023-08-24T02:33:23;9.57;;;6.93;;
77938;SDS011;67136;47.546;21.630;2023-08-24T02:36:26;10.25;;;6.45;;
77938;SDS011;67136;47.546;21.630;2023-08-24T02:39:30;8.63;;;6.37;;
77938;SDS011;67136;47.546;21.630;2023-08-24T02:42:33;10.13;;;6.50;;
77938;SDS011;67136;47.546;21.630;2023-08-24T02:45:36;10.15;;;6.50;;
77938;SDS011;67136;47.546;21.630;2023-08-24T02:48:39;8.90;;;6.60;;
77938;SDS011;67136;47.546;21.630;2023-08-24T02:51:42;11.40;;;6.78;;
77938;SDS011;67136;47.546;21.630;2023-08-24T02:54:45;11.67;;;6.33;;
77938;SDS011;67136;47.546;21.630;2023-08-24T02:57:48;10.82;;;6.43;;
77938;SDS011;67136;47.546;21.630;2023-08-24T03:00:51;11.40;;;6.93;;
77938;SDS011;67136;47.546;21.630;2023-08-24T03:03:54;9.55;;;6.60;;
77938;SDS011;67136;47.546;21.630;2023-08-24T03:06:59;9.43;;;6.95;;
77938;SDS011;67136;47.546;21.630;2023-08-24T03:10:01;10.63;;;6.90;;
77938;SDS011;67136;47.546;21.630;2023-08-24T03:13:04;11.10;;;7.18;;
77938;SDS011;67136;47.546;21.630;2023-08-24T03:16:07;9.77;;;6.97;;
77938;SDS011;67136;47.546;21.630;2023-08-24T03:19:11;9.85;;;7.00;;
77938;SDS011;67136;47.546;21.630;2023-08-24T03:22:14;11.80;;;6.80;;
77938;SDS011;67136;47.546;21.630;2023-08-24T03:25:17;9.40;;;7.07;;
77938;SDS011;67136;47.546;21.630;2023-08-24T03:28:20;12.63;;;6.90;;
77938;SDS011;67136;47.546;21.630;2023-08-24T03:31:22;9.73;;;6.43;;
77938;SDS011;67136;47.546;21.630;2023-08-24T03:34:25;9.63;;;6.50;;
77938;SDS011;67136;47.546;21.630;2023-08-24T03:37:29;10.77;;;6.65;;
77938;SDS011;67136;47.546;21.630;2023-08-24T03:40:32;9.77;;;6.40;;
77938;SDS011;67136;47.546;21.630;2023-08-24T03:43:34;13.27;;;7.53;;
77938;SDS011;67136;47.546;21.630;2023-08-24T03:46:37;12.05;;;6.60;;
77938;SDS011;67136;47.546;21.630;2023-08-24T03:49:43;9.40;;;6.50;;
77938;SDS011;67136;47.546;21.630;2023-08-24T03:52:46;11.90;;;6.80;;
77938;SDS011;67136;47.546;21.630;2023-08-24T03:55:50;9.27;;;6.43;;
77938;SDS011;67136;47.546;21.630;2023-08-24T03:58:54;9.60;;;6.53;;
77938;SDS011;67136;47.546;21.630;2023-08-24T04:01:57;13.02;;;6.97;;
77938;SDS011;67136;47.546;21.630;2023-08-24T04:05:04;12.32;;;7.55;;
77938;SDS011;67136;47.546;21.630;2023-08-24T04:08:06;10.43;;;7.10;;
77938;SDS011;67136;47.546;21.630;2023-08-24T04:11:11;10.70;;;6.60;;
77938;SDS011;67136;47.546;21.630;2023-08-24T04:14:13;11.27;;;6.80;;
77938;SDS011;67136;47.546;21.630;2023-08-24T04:17:16;10.27;;;7.40;;
77938;SDS011;67136;47.546;21.630;2023-08-24T04:20:19;11.80;;;6.80;;
77938;SDS011;67136;47.546;21.630;2023-08-24T04:23:23;11.15;;;7.18;;
77938;SDS011;67136;47.546;21.630;2023-08-24T04:26:27;9.73;;;6.63;;
77938;SDS011;67136;47.546;21.630;2023-08-24T04:29:30;11.10;;;7.18;;
77938;SDS011;67136;47.546;21.630;2023-08-24T04:32:33;9.07;;;6.62;;
77938;SDS011;67136;47.546;21.630;2023-08-24T04:35:35;12.95;;;6.78;;
77938;SDS011;67136;47.546;21.630;2023-08-24T04:38:38;11.93;;;7.05;;
77938;SDS011;67136;47.546;21.630;2023-08-24T04:41:41;10.33;;;6.27;;
77938;SDS011;67136;47.546;21.630;2023-08-24T04:44:43;12.27;;;7.97;;
77938;SDS011;67136;47.546;21.630;2023-08-24T04:47:46;9.80;;;6.82;;
77938;SDS011;67136;47.546;21.630;2023-08-24T04:50:49;12.07;;;6.72;;
77938;SDS011;67136;47.546;21.630;2023-08-24T04:53:52;8.70;;;6.47;;
77938;SDS011;67136;47.546;21.630;2023-08-24T04:56:54;8.80;;;6.30;;
77938;SDS011;67136;47.546;21.630;2023-08-24T04:59:57;10.93;;;6.43;;
77938;SDS011;67136;47.546;21.630;2023-08-24T05:03:00;9.10;;;6.43;;
77938;SDS011;67136;47.546;21.630;2023-08-24T05:06:03;10.13;;;6.45;;
77938;SDS011;67136;47.546;21.630;2023-08-24T05:09:06;9.52;;;5.68;;
77938;SDS011;67136;47.546;21.630;2023-08-24T05:12:08;15.97;;;6.40;;
77938;SDS011;67136;47.546;21.630;2023-08-24T05:15:11;11.38;;;6.22;;
77938;SDS011;67136;47.546;21.630;2023-08-24T05:18:15;8.45;;;6.12;;
77938;SDS011;67136;47.546;21.630;2023-08-24T05:21:18;9.57;;;6.25;;
77938;SDS011;67136;47.546;21.630;2023-08-24T05:24:21;9.20;;;5.53;;
77938;SDS011;67136;47.546;21.630;2023-08-24T05:27:23;10.93;;;5.90;;
77938;SDS011;67136;47.546;21.630;2023-08-24T05:30:26;8.13;;;5.10;;
77938;SDS011;67136;47.546;21.630;2023-08-24T05:33:31;7.53;;;5.30;;
77938;SDS011;67136;47.546;21.630;2023-08-24T05:36:35;9.25;;;5.40;;
77938;SDS011;67136;47.546;21.630;2023-08-24T05:39:38;7.00;;;4.80;;
77938;SDS011;67136;47.546;21.630;2023-08-24T05:42:41;7.87;;;5.20;;
77938;SDS011;67136;47.546;21.630;2023-08-24T05:45:43;5.30;;;4.45;;
77938;SDS011;67136;47.546;21.630;2023-08-24T05:48:49;6.57;;;4.70;;
77938;SDS011;67136;47.546;21.630;2023-08-24T05:51:51;7.30;;;4.82;;
77938;SDS011;67136;47.546;21.630;2023-08-24T05:54:55;6.55;;;4.78;;
77938;SDS011;67136;47.546;21.630;2023-08-24T05:57:57;6.87;;;4.50;;
77938;SDS011;67136;47.546;21.630;2023-08-24T06:01:00;10.50;;;4.53;;
77938;SDS011;67136;47.546;21.630;2023-08-24T06:04:05;7.75;;;4.50;;
77938;SDS011;67136;47.546;21.630;2023-08-24T06:07:07;9.75;;;4.57;;
77938;SDS011;67136;47.546;21.630;2023-08-24T06:10:10;8.98;;;4.32;;
77938;SDS011;67136;47.546;21.630;2023-08-24T06:13:13;5.30;;;4.10;;
77938;SDS011;67136;47.546;21.630;2023-08-24T06:16:16;8.23;;;4.47;;
77938;SDS011;67136;47.546;21.630;2023-08-24T06:19:19;5.57;;;4.68;;
77938;SDS011;67136;47.546;21.630;2023-08-24T06:22:21;12.02;;;5.28;;
77938;SDS011;67136;47.546;21.630;2023-08-24T06:25:24;9.07;;;5.62;;
77938;SDS011;67136;47.546;21.630;2023-08-24T06:28:27;8.13;;;5.40;;
77938;SDS011;67136;47.546;21.630;2023-08-24T06:31:29;7.57;;;5.53;;
77938;SDS011;67136;47.546;21.630;2023-08-24T06:34:33;11.27;;;6.30;;
77938;SDS011;67136;47.546;21.630;2023-08-24T06:37:36;9.77;;;5.90;;
77938;SDS011;67136;47.546;21.630;2023-08-24T06:40:39;7.85;;;5.90;;
77938;SDS011;67136;47.546;21.630;2023-08-24T06:43:41;9.33;;;5.47;;
77938;SDS011;67136;47.546;21.630;2023-08-24T06:46:44;9.07;;;6.00;;
77938;SDS011;67136;47.546;21.630;2023-08-24T06:49:47;10.38;;;6.43;;
77938;SDS011;67136;47.546;21.630;2023-08-24T06:52:49;11.55;;;6.25;;
77938;SDS011;67136;47.546;21.630;2023-08-24T06:55:55;9.52;;;6.60;;
77938;SDS011;67136;47.546;21.630;2023-08-24T06:58:58;9.00;;;6.50;;
77938;SDS011;67136;47.546;21.630;2023-08-24T07:02:01;7.70;;;6.50;;
77938;SDS011;67136;47.546;21.630;2023-08-24T07:05:03;11.75;;;6.40;;
77938;SDS011;67136;47.546;21.630;2023-08-24T07:08:11;9.52;;;6.30;;
77938;SDS011;67136;47.546;21.630;2023-08-24T07:11:14;9.18;;;6.10;;
77938;SDS011;67136;47.546;21.630;2023-08-24T07:14:16;7.30;;;5.73;;
77938;SDS011;67136;47.546;21.630;2023-08-24T07:17:19;9.20;;;6.15;;
77938;SDS011;67136;47.546;21.630;2023-08-24T07:20:22;11.05;;;6.40;;
77938;SDS011;67136;47.546;21.630;2023-08-24T07:23:25;10.45;;;7.20;;
77938;SDS011;67136;47.546;21.630;2023-08-24T07:26:28;9.45;;;6.57;;
77938;SDS011;67136;47.546;21.630;2023-08-24T07:29:32;8.17;;;6.50;;
77938;SDS011;67136;47.546;21.630;2023-08-24T07:32:35;11.20;;;6.57;;
77938;SDS011;67136;47.546;21.630;2023-08-24T07:35:38;9.32;;;6.75;;
77938;SDS011;67136;47.546;21.630;2023-08-24T07:38:41;10.35;;;6.60;;
77938;SDS011;67136;47.546;21.630;2023-08-24T07:41:44;12.30;;;6.97;;
77938;SDS011;67136;47.546;21.630;2023-08-24T07:44:47;9.80;;;6.80;;
77938;SDS011;67136;47.546;21.630;2023-08-24T07:47:51;10.18;;;6.57;;
77938;SDS011;67136;47.546;21.630;2023-08-24T07:50:54;10.23;;;6.62;;
77938;SDS011;67136;47.546;21.630;2023-08-24T07:53:56;13.52;;;7.05;;
77938;SDS011;67136;47.546;21.630;2023-08-24T07:57:01;11.95;;;6.65;;
77938;SDS011;67136;47.546;21.630;2023-08-24T08:00:04;14.37;;;6.10;;
77938;SDS011;67136;47.546;21.630;2023-08-24T08:03:13;8.57;;;6.10;;
77938;SDS011;67136;47.546;21.630;2023-08-24T08:06:16;7.50;;;5.85;;
77938;SDS011;67136;47.546;21.630;2023-08-24T08:09:19;9.02;;;6.10;;
77938;SDS011;67136;47.546;21.630;2023-08-24T08:12:21;7.43;;;5.68;;
77938;SDS011;67136;47.546;21.630;2023-08-24T08:15:24;6.67;;;5.07;;
77938;SDS011;67136;47.546;21.630;2023-08-24T08:18:27;8.20;;;4.93;;
77938;SDS011;67136;47.546;21.630;2023-08-24T08:21:29;8.55;;;5.97;;
77938;SDS011;67136;47.546;21.630;2023-08-24T08:24:32;6.95;;;5.07;;
77938;SDS011;67136;47.546;21.630;2023-08-24T08:27:35;10.23;;;5.05;;
77938;SDS011;67136;47.546;21.630;2023-08-24T08:30:38;10.47;;;5.20;;
77938;SDS011;67136;47.546;21.630;2023-08-24T08:33:40;7.28;;;5.43;;
77938;SDS011;67136;47.546;21.630;2023-08-24T08:36:43;5.93;;;5.18;;
77938;SDS011;67136;47.546;21.630;2023-08-24T08:39:46;9.15;;;5.00;;
77938;SDS011;67136;47.546;21.630;2023-08-24T08:42:49;8.07;;;5.28;;
77938;SDS011;67136;47.546;21.630;2023-08-24T08:45:51;6.20;;;5.10;;
77938;SDS011;67136;47.546;21.630;2023-08-24T08:48:56;7.93;;;5.28;;
77938;SDS011;67136;47.546;21.630;2023-08-24T08:52:02;5.87;;;5.30;;
77938;SDS011;67136;47.546;21.630;2023-08-24T08:55:06;10.10;;;5.10;;
77938;SDS011;67136;47.546;21.630;2023-08-24T08:58:12;6.22;;;5.40;;
77938;SDS011;67136;47.546;21.630;2023-08-24T09:01:16;9.67;;;5.63;;
77938;SDS011;67136;47.546;21.630;2023-08-24T09:04:19;7.25;;;5.68;;
77938;SDS011;67136;47.546;21.630;2023-08-24T09:07:22;6.22;;;4.97;;
77938;SDS011;67136;47.546;21.630;2023-08-24T09:10:25;8.73;;;5.25;;
77938;SDS011;67136;47.546;21.630;2023-08-24T09:13:29;6.55;;;5.40;;
77938;SDS011;67136;47.546;21.630;2023-08-24T09:16:33;8.40;;;5.40;;
77938;SDS011;67136;47.546;21.630;2023-08-24T09:19:36;7.03;;;5.53;;
77938;SDS011;67136;47.546;21.630;2023-08-24T09:22:40;5.78;;;5.10;;
77938;SDS011;67136;47.546;21.630;2023-08-24T09:25:46;6.70;;;5.37;;
77938;SDS011;67136;47.546;21.630;2023-08-24T09:28:50;7.25;;;5.25;;
77938;SDS011;67136;47.546;21.630;2023-08-24T09:31:53;6.40;;;4.93;;
77938;SDS011;67136;47.546;21.630;2023-08-24T09:34:55;6.68;;;4.65;;
77938;SDS011;67136;47.546;21.630;2023-08-24T09:38:20;8.40;;;5.72;;
77938;SDS011;67136;47.546;21.630;2023-08-24T09:41:43;6.78;;;5.45;;
77938;SDS011;67136;47.546;21.630;2023-08-24T09:44:47;6.62;;;5.57;;
77938;SDS011;67136;47.546;21.630;2023-08-24T09:47:50;9.60;;;5.20;;
77938;SDS011;67136;47.546;21.630;2023-08-24T09:50:56;10.10;;;4.82;;
77938;SDS011;67136;47.546;21.630;2023-08-24T09:53:59;7.43;;;5.78;;
77938;SDS011;67136;47.546;21.630;2023-08-24T09:57:08;6.35;;;4.93;;
77938;SDS011;67136;47.546;21.630;2023-08-24T10:00:13;5.70;;;5.10;;
77938;SDS011;67136;47.546;21.630;2023-08-24T10:03:20;6.50;;;5.10;;
77938;SDS011;67136;47.546;21.630;2023-08-24T10:06:32;6.35;;;5.05;;
77938;SDS011;67136;47.546;21.630;2023-08-24T10:09:39;6.22;;;4.80;;
77938;SDS011;67136;47.546;21.630;2023-08-24T10:12:47;8.20;;;5.15;;
77938;SDS011;67136;47.546;21.630;2023-08-24T10:15:57;6.35;;;5.07;;
77938;SDS011;67136;47.546;21.630;2023-08-24T10:19:02;7.47;;;4.70;;
77938;SDS011;67136;47.546;21.630;2023-08-24T10:22:06;5.68;;;4.62;;
77938;SDS011;67136;47.546;21.630;2023-08-24T10:25:10;8.98;;;4.82;;
77938;SDS011;67136;47.546;21.630;2023-08-24T10:28:13;6.65;;;4.60;;
77938;SDS011;67136;47.546;21.630;2023-08-24T10:31:17;6.55;;;4.47;;
77938;SDS011;67136;47.546;21.630;2023-08-24T10:34:22;5.20;;;3.97;;
77938;SDS011;67136;47.546;21.630;2023-08-24T10:37:25;5.22;;;4.20;;
77938;SDS011;67136;47.546;21.630;2023-08-24T10:40:33;5.18;;;4.18;;
77938;SDS011;67136;47.546;21.630;2023-08-24T10:43:37;8.20;;;4.40;;
77938;SDS011;67136;47.546;21.630;2023-08-24T10:46:40;6.20;;;4.90;;
77938;SDS011;67136;47.546;21.630;2023-08-24T10:49:43;7.90;;;4.87;;
77938;SDS011;67136;47.546;21.630;2023-08-24T10:52:48;7.82;;;4.45;;
77938;SDS011;67136;47.546;21.630;2023-08-24T10:56:00;8.35;;;4.60;;
77938;SDS011;67136;47.546;21.630;2023-08-24T10:59:16;7.22;;;4.97;;
77938;SDS011;67136;47.546;21.630;2023-08-24T11:02:20;8.50;;;5.10;;
77938;SDS011;67136;47.546;21.630;2023-08-24T11:05:24;7.47;;;4.73;;
77938;SDS011;67136;47.546;21.630;2023-08-24T11:08:43;6.30;;;4.60;;
77938;SDS011;67136;47.546;21.630;2023-08-24T11:12:05;5.40;;;4.87;;
77938;SDS011;67136;47.546;21.630;2023-08-24T11:15:07;7.32;;;4.93;;
77938;SDS011;67136;47.546;21.630;2023-08-24T11:18:12;8.88;;;5.00;;
77938;SDS011;67136;47.546;21.630;2023-08-24T11:21:16;5.87;;;4.90;;
77938;SDS011;67136;47.546;21.630;2023-08-24T11:24:24;7.68;;;5.60;;
77938;SDS011;67136;47.546;21.630;2023-08-24T11:27:27;11.48;;;5.30;;
77938;SDS011;67136;47.546;21.630;2023-08-24T11:30:31;7.25;;;5.25;;
77938;SDS011;67136;47.546;21.630;2023-08-24T11:33:35;5.68;;;4.78;;
77938;SDS011;67136;47.546;21.630;2023-08-24T11:36:45;8.30;;;5.40;;
77938;SDS011;67136;47.546;21.630;2023-08-24T11:39:49;6.62;;;4.80;;
77938;SDS011;67136;47.546;21.630;2023-08-24T11:42:55;6.28;;;5.22;;
77938;SDS011;67136;47.546;21.630;2023-08-24T11:45:58;8.38;;;5.15;;
77938;SDS011;67136;47.546;21.630;2023-08-24T11:49:01;9.38;;;5.60;;
77938;SDS011;67136;47.546;21.630;2023-08-24T11:52:07;8.77;;;5.00;;
77938;SDS011;67136;47.546;21.630;2023-08-24T11:55:11;9.95;;;5.10;;
77938;SDS011;67136;47.546;21.630;2023-08-24T11:58:16;8.25;;;4.80;;
77938;SDS011;67136;47.546;21.630;2023-08-24T12:01:19;9.32;;;4.93;;
77938;SDS011;67136;47.546;21.630;2023-08-24T12:04:23;9.20;;;5.10;;
77938;SDS011;67136;47.546;21.630;2023-08-24T12:07:25;6.83;;;5.17;;
77938;SDS011;67136;47.546;21.630;2023-08-24T12:10:33;7.68;;;5.18;;
77938;SDS011;67136;47.546;21.630;2023-08-24T12:13:37;6.93;;;4.75;;
77938;SDS011;67136;47.546;21.630;2023-08-24T12:16:40;6.57;;;5.05;;
77938;SDS011;67136;47.546;21.630;2023-08-24T12:19:44;5.82;;;4.85;;
77938;SDS011;67136;47.546;21.630;2023-08-24T12:25:57;6.65;;;5.18;;
77938;SDS011;67136;47.546;21.630;2023-08-24T12:29:01;6.47;;;5.40;;
77938;SDS011;67136;47.546;21.630;2023-08-24T12:32:07;7.78;;;5.10;;
77938;SDS011;67136;47.546;21.630;2023-08-24T12:35:10;7.80;;;5.00;;
77938;SDS011;67136;47.546;21.630;2023-08-24T12:38:13;6.90;;;5.13;;
77938;SDS011;67136;47.546;21.630;2023-08-24T12:41:16;5.22;;;4.72;;
77938;SDS011;67136;47.546;21.630;2023-08-24T12:44:18;8.23;;;4.72;;
77938;SDS011;67136;47.546;21.630;2023-08-24T12:47:21;7.53;;;4.70;;
77938;SDS011;67136;47.546;21.630;2023-08-24T12:50:23;7.65;;;5.03;;
77938;SDS011;67136;47.546;21.630;2023-08-24T12:53:26;6.97;;;4.47;;
77938;SDS011;67136;47.546;21.630;2023-08-24T12:56:28;8.65;;;4.80;;
77938;SDS011;67136;47.546;21.630;2023-08-24T12:59:31;7.15;;;4.50;;
77938;SDS011;67136;47.546;21.630;2023-08-24T13:02:34;6.97;;;4.65;;
77938;SDS011;67136;47.546;21.630;2023-08-24T13:05:40;7.03;;;4.78;;
77938;SDS011;67136;47.546;21.630;2023-08-24T13:08:43;11.80;;;5.00;;
77938;SDS011;67136;47.546;21.630;2023-08-24T13:11:48;5.20;;;4.50;;
77938;SDS011;67136;47.546;21.630;2023-08-24T13:14:51;5.37;;;4.60;;
77938;SDS011;67136;47.546;21.630;2023-08-24T13:17:54;5.75;;;4.55;;
77938;SDS011;67136;47.546;21.630;2023-08-24T13:20:56;7.50;;;4.72;;
77938;SDS011;67136;47.546;21.630;2023-08-24T13:23:59;7.37;;;4.40;;
77938;SDS011;67136;47.546;21.630;2023-08-24T13:27:02;5.68;;;4.50;;
77938;SDS011;67136;47.546;21.630;2023-08-24T13:30:05;6.80;;;4.82;;
77938;SDS011;67136;47.546;21.630;2023-08-24T13:33:08;7.25;;;4.93;;
77938;SDS011;67136;47.546;21.630;2023-08-24T13:36:11;6.87;;;4.80;;
77938;SDS011;67136;47.546;21.630;2023-08-24T13:39:13;6.30;;;4.50;;
77938;SDS011;67136;47.546;21.630;2023-08-24T13:42:17;9.50;;;4.87;;
77938;SDS011;67136;47.546;21.630;2023-08-24T13:45:19;7.80;;;4.93;;
77938;SDS011;67136;47.546;21.630;2023-08-24T13:48:22;5.18;;;4.50;;
77938;SDS011;67136;47.546;21.630;2023-08-24T13:51:26;6.18;;;4.57;;
77938;SDS011;67136;47.546;21.630;2023-08-24T13:54:29;6.40;;;4.67;;
77938;SDS011;67136;47.546;21.630;2023-08-24T13:57:32;8.68;;;4.72;;
77938;SDS011;67136;47.546;21.630;2023-08-24T14:00:35;7.10;;;4.43;;
77938;SDS011;67136;47.546;21.630;2023-08-24T14:03:38;7.37;;;4.25;;
77938;SDS011;67136;47.546;21.630;2023-08-24T14:06:42;7.40;;;4.60;;
77938;SDS011;67136;47.546;21.630;2023-08-24T14:09:44;6.10;;;4.50;;
77938;SDS011;67136;47.546;21.630;2023-08-24T14:13:05;6.20;;;4.07;;
77938;SDS011;67136;47.546;21.630;2023-08-24T14:16:08;6.50;;;4.72;;
77938;SDS011;67136;47.546;21.630;2023-08-24T14:19:11;7.65;;;4.37;;
77938;SDS011;67136;47.546;21.630;2023-08-24T14:22:14;4.97;;;4.45;;
77938;SDS011;67136;47.546;21.630;2023-08-24T14:25:16;8.37;;;4.50;;
77938;SDS011;67136;47.546;21.630;2023-08-24T14:28:20;5.72;;;4.90;;
77938;SDS011;67136;47.546;21.630;2023-08-24T14:31:24;5.60;;;4.80;;
77938;SDS011;67136;47.546;21.630;2023-08-24T14:34:29;8.15;;;4.85;;
77938;SDS011;67136;47.546;21.630;2023-08-24T14:37:32;6.78;;;5.18;;
77938;SDS011;67136;47.546;21.630;2023-08-24T14:40:35;4.90;;;4.20;;
77938;SDS011;67136;47.546;21.630;2023-08-24T14:43:41;11.23;;;4.90;;
77938;SDS011;67136;47.546;21.630;2023-08-24T14:46:44;11.20;;;4.78;;
77938;SDS011;67136;47.546;21.630;2023-08-24T14:49:46;5.87;;;4.95;;
77938;SDS011;67136;47.546;21.630;2023-08-24T14:52:50;9.73;;;4.70;;
77938;SDS011;67136;47.546;21.630;2023-08-24T14:55:53;7.67;;;4.83;;
77938;SDS011;67136;47.546;21.630;2023-08-24T14:58:57;11.18;;;5.12;;
77938;SDS011;67136;47.546;21.630;2023-08-24T15:01:59;5.87;;;4.10;;
77938;SDS011;67136;47.546;21.630;2023-08-24T15:05:03;9.35;;;4.55;;
77938;SDS011;67136;47.546;21.630;2023-08-24T15:08:06;5.65;;;4.35;;
77938;SDS011;67136;47.546;21.630;2023-08-24T15:11:09;8.87;;;4.83;;
77938;SDS011;67136;47.546;21.630;2023-08-24T15:14:11;8.32;;;4.50;;
77938;SDS011;67136;47.546;21.630;2023-08-24T15:17:14;6.60;;;4.72;;
77938;SDS011;67136;47.546;21.630;2023-08-24T15:20:16;6.85;;;4.22;;
77938;SDS011;67136;47.546;21.630;2023-08-24T15:23:26;6.85;;;4.40;;
77938;SDS011;67136;47.546;21.630;2023-08-24T15:26:29;8.37;;;4.60;;
77938;SDS011;67136;47.546;21.630;2023-08-24T15:29:33;7.10;;;4.62;;
77938;SDS011;67136;47.546;21.630;2023-08-24T15:32:35;5.72;;;4.53;;
77938;SDS011;67136;47.546;21.630;2023-08-24T15:35:41;9.25;;;4.80;;
77938;SDS011;67136;47.546;21.630;2023-08-24T15:38:47;7.18;;;4.50;;
77938;SDS011;67136;47.546;21.630;2023-08-24T15:41:50;9.27;;;4.73;;
77938;SDS011;67136;47.546;21.630;2023-08-24T15:44:52;7.43;;;4.80;;
77938;SDS011;67136;47.546;21.630;2023-08-24T15:47:58;13.73;;;5.55;;
77938;SDS011;67136;47.546;21.630;2023-08-24T15:51:02;9.55;;;4.72;;
77938;SDS011;67136;47.546;21.630;2023-08-24T15:54:05;6.75;;;4.70;;
77938;SDS011;67136;47.546;21.630;2023-08-24T15:57:07;11.53;;;5.10;;
77938;SDS011;67136;47.546;21.630;2023-08-24T16:00:12;7.00;;;4.40;;
77938;SDS011;67136;47.546;21.630;2023-08-24T16:03:16;13.77;;;4.95;;
77938;SDS011;67136;47.546;21.630;2023-08-24T16:06:18;8.93;;;4.47;;
77938;SDS011;67136;47.546;21.630;2023-08-24T16:09:21;10.25;;;4.57;;
77938;SDS011;67136;47.546;21.630;2023-08-24T16:12:23;5.20;;;4.50;;
77938;SDS011;67136;47.546;21.630;2023-08-24T16:15:26;9.52;;;4.80;;
77938;SDS011;67136;47.546;21.630;2023-08-24T16:18:28;9.27;;;4.60;;
77938;SDS011;67136;47.546;21.630;2023-08-24T16:21:31;8.27;;;4.60;;
77938;SDS011;67136;47.546;21.630;2023-08-24T16:24:34;8.48;;;4.85;;
77938;SDS011;67136;47.546;21.630;2023-08-24T16:27:36;7.43;;;4.83;;
77938;SDS011;67136;47.546;21.630;2023-08-24T16:30:40;11.10;;;4.93;;
77938;SDS011;67136;47.546;21.630;2023-08-24T16:33:43;6.28;;;4.62;;
77938;SDS011;67136;47.546;21.630;2023-08-24T16:36:45;10.18;;;5.00;;
77938;SDS011;67136;47.546;21.630;2023-08-24T16:39:48;10.35;;;4.95;;
77938;SDS011;67136;47.546;21.630;2023-08-24T16:42:51;6.90;;;4.83;;
77938;SDS011;67136;47.546;21.630;2023-08-24T16:45:53;16.33;;;5.32;;
77938;SDS011;67136;47.546;21.630;2023-08-24T16:48:56;12.13;;;5.00;;
77938;SDS011;67136;47.546;21.630;2023-08-24T16:52:17;7.90;;;5.00;;
77938;SDS011;67136;47.546;21.630;2023-08-24T16:55:20;8.90;;;4.72;;
77938;SDS011;67136;47.546;21.630;2023-08-24T16:58:23;6.90;;;4.67;;
77938;SDS011;67136;47.546;21.630;2023-08-24T17:01:25;9.48;;;5.22;;
77938;SDS011;67136;47.546;21.630;2023-08-24T17:04:28;8.82;;;5.07;;
77938;SDS011;67136;47.546;21.630;2023-08-24T17:07:31;8.60;;;5.12;;
77938;SDS011;67136;47.546;21.630;2023-08-24T17:10:36;8.65;;;5.12;;
77938;SDS011;67136;47.546;21.630;2023-08-24T17:13:41;8.60;;;5.17;;
77938;SDS011;67136;47.546;21.630;2023-08-24T17:16:43;7.90;;;5.30;;
77938;SDS011;67136;47.546;21.630;2023-08-24T17:19:46;9.52;;;4.97;;
77938;SDS011;67136;47.546;21.630;2023-08-24T17:22:49;10.05;;;5.55;;
77938;SDS011;67136;47.546;21.630;2023-08-24T17:25:52;9.48;;;4.95;;
77938;SDS011;67136;47.546;21.630;2023-08-24T17:28:54;9.63;;;5.60;;
77938;SDS011;67136;47.546;21.630;2023-08-24T17:31:57;10.80;;;5.55;;
77938;SDS011;67136;47.546;21.630;2023-08-24T17:34:59;8.27;;;5.80;;
77938;SDS011;67136;47.546;21.630;2023-08-24T17:38:02;9.15;;;5.50;;
77938;SDS011;67136;47.546;21.630;2023-08-24T17:41:05;10.65;;;5.65;;
77938;SDS011;67136;47.546;21.630;2023-08-24T17:44:11;11.77;;;6.10;;
77938;SDS011;67136;47.546;21.630;2023-08-24T17:47:13;15.98;;;6.22;;
77938;SDS011;67136;47.546;21.630;2023-08-24T17:50:16;10.18;;;5.85;;
77938;SDS011;67136;47.546;21.630;2023-08-24T17:53:20;14.48;;;5.80;;
77938;SDS011;67136;47.546;21.630;2023-08-24T17:56:28;14.87;;;5.68;;
77938;SDS011;67136;47.546;21.630;2023-08-24T17:59:31;9.23;;;5.90;;
77938;SDS011;67136;47.546;21.630;2023-08-24T18:02:34;11.25;;;6.28;;
77938;SDS011;67136;47.546;21.630;2023-08-24T18:05:37;13.23;;;6.30;;
77938;SDS011;67136;47.546;21.630;2023-08-24T18:08:40;9.98;;;6.15;;
77938;SDS011;67136;47.546;21.630;2023-08-24T18:11:53;9.52;;;6.05;;
77938;SDS011;67136;47.546;21.630;2023-08-24T18:14:55;16.43;;;6.40;;
77938;SDS011;67136;47.546;21.630;2023-08-24T18:17:58;16.58;;;6.70;;
77938;SDS011;67136;47.546;21.630;2023-08-24T18:21:01;12.18;;;6.57;;
77938;SDS011;67136;47.546;21.630;2023-08-24T18:24:05;10.25;;;6.18;;